Time;durP1;ratioP1;P1;durP2;ratioP2;P2;SDS_P1;SDS_P2;PMS_P1;PMS_P2;Temp;Humidity;BMP_temperature;BMP_pressure;BME280_temperature;BME280_humidity;BME280_pressure;Samples;Min_cycle;Max_cycle;Signal;HPM_P1;HPM_P2
2020/12/02 00:00:01;;;;;;;2.95;0.60;;;;;;;18.71;43.43;101881.50;5269109;28;20638;-26
2020/12/02 00:02:35;;;;;;;1.47;0.80;;;;;;;18.72;43.36;101880.53;5271993;28;20031;-25
2020/12/02 00:05:09;;;;;;;0.70;0.45;;;;;;;18.71;43.17;101882.38;5252247;28;20035;-26
2020/12/02 00:07:41;;;;;;;1.20;0.60;;;;;;;18.71;43.33;101882.38;5266314;28;20123;-26
2020/12/02 00:10:12;;;;;;;1.50;0.60;;;;;;;18.73;43.33;101878.72;5267136;28;20078;-26
2020/12/02 00:12:43;;;;;;;1.23;0.67;;;;;;;18.71;43.48;101874.41;5265417;28;20078;-26
2020/12/02 00:15:15;;;;;;;1.27;0.60;;;;;;;18.72;43.33;101883.19;5272061;28;20025;-26
2020/12/02 00:17:46;;;;;;;1.07;0.50;;;;;;;18.71;43.22;101876.19;5267207;28;20081;-26
2020/12/02 00:20:18;;;;;;;1.20;0.60;;;;;;;18.70;43.05;101878.03;5273713;28;20032;-25
2020/12/02 00:22:49;;;;;;;1.33;0.60;;;;;;;18.71;43.33;101876.19;5270227;28;20651;-26
2020/12/02 00:25:20;;;;;;;1.03;0.50;;;;;;;18.49;43.29;101840.41;5268661;28;20569;-26
2020/12/02 00:27:52;;;;;;;1.67;0.70;;;;;;;18.70;43.29;101869.22;5251494;28;20094;-25
2020/12/02 00:30:23;;;;;;;1.30;0.70;;;;;;;18.69;43.23;101868.38;5271231;28;20035;-25
2020/12/02 00:32:54;;;;;;;1.07;0.50;;;;;;;18.69;43.08;101879.00;5268974;28;20020;-26
2020/12/02 00:35:26;;;;;;;1.20;0.50;;;;;;;18.69;43.25;101879.00;5236745;28;20024;-25
2020/12/02 00:37:57;;;;;;;1.53;0.70;;;;;;;18.70;43.10;101882.47;5265908;28;20027;-26
2020/12/02 00:40:29;;;;;;;1.00;0.50;;;;;;;18.69;43.09;101886.97;5268773;28;20020;-26
2020/12/02 00:43:00;;;;;;;1.23;0.60;;;;;;;18.69;43.29;101883.47;5269063;28;20382;-26
2020/12/02 00:45:31;;;;;;;0.90;0.53;;;;;;;18.69;43.21;101888.78;5268590;28;20020;-25
2020/12/02 00:48:03;;;;;;;1.90;0.70;;;;;;;18.66;43.04;101889.09;5265998;28;20035;-26
2020/12/02 00:50:34;;;;;;;1.47;0.73;;;;;;;18.69;43.23;101894.94;5253645;28;20358;-25
2020/12/02 00:53:08;;;;;;;1.17;0.60;;;;;;;18.69;43.25;101891.44;5272124;28;20020;-26
2020/12/02 00:55:40;;;;;;;1.45;0.80;;;;;;;18.67;43.19;101896.88;5250390;28;20025;-26
2020/12/02 00:58:14;;;;;;;1.80;0.90;;;;;;;18.66;43.14;101887.28;5267631;28;20044;-26
2020/12/02 01:00:45;;;;;;;1.25;0.70;;;;;;;18.67;43.11;101885.44;5268337;28;20749;-26
2020/12/02 01:03:22;;;;;;;1.20;0.63;;;;;;;18.68;43.29;101887.13;5256014;28;20032;-26
2020/12/02 01:05:54;;;;;;;1.30;0.60;;;;;;;18.65;43.00;101880.31;5251982;28;20313;-27
2020/12/02 01:08:31;;;;;;;1.75;0.70;;;;;;;18.68;42.96;101881.81;5270742;28;20075;-26
2020/12/02 01:11:09;;;;;;;1.40;0.77;;;;;;;18.66;43.21;101876.66;5250085;28;20052;-26
2020/12/02 01:13:41;;;;;;;1.33;0.60;;;;;;;18.66;43.18;101867.84;5273834;28;20028;-26
2020/12/02 01:16:16;;;;;;;1.00;0.70;;;;;;;18.66;43.14;101868.69;5234437;28;20402;-26
2020/12/02 01:18:47;;;;;;;1.30;0.80;;;;;;;18.65;43.26;101872.34;5276740;28;20024;-26
2020/12/02 01:21:43;;;;;;;1.07;0.60;;;;;;;18.68;42.91;101872.03;5274948;28;20703;-26
2020/12/02 01:24:18;;;;;;;1.30;0.68;;;;;;;18.66;43.21;101873.16;5271978;28;20025;-26
2020/12/02 01:26:54;;;;;;;1.30;0.70;;;;;;;18.66;43.01;101863.38;5274127;28;20044;-26
2020/12/02 01:29:26;;;;;;;1.38;0.70;;;;;;;18.63;43.21;101866.34;5256842;28;20028;-26
2020/12/02 01:31:57;;;;;;;1.27;0.70;;;;;;;18.65;42.86;101869.69;5255134;28;20035;-26
2020/12/02 01:34:28;;;;;;;1.87;0.93;;;;;;;18.65;43.10;101871.50;5273658;28;20023;-26
2020/12/02 01:37:06;;;;;;;1.10;0.60;;;;;;;18.66;43.19;101867.84;5273941;28;20028;-25
2020/12/02 01:39:41;;;;;;;1.17;0.70;;;;;;;18.64;42.98;101865.38;5272365;28;20024;-26
2020/12/02 01:42:12;;;;;;;1.48;0.82;;;;;;;18.64;42.94;101869.84;5252494;28;20045;-26
2020/12/02 01:44:44;;;;;;;1.43;0.70;;;;;;;18.64;43.13;101868.03;5272704;28;20115;-26
2020/12/02 01:47:46;;;;;;;1.67;0.87;;;;;;;18.71;42.89;101870.88;5271888;28;20023;-26
2020/12/02 01:50:34;;;;;;;1.50;0.80;;;;;;;18.68;42.99;101872.03;5271857;28;20058;-26
2020/12/02 01:53:19;;;;;;;1.30;0.80;;;;;;;18.66;42.96;101860.72;5256000;28;20025;-26
2020/12/02 01:56:02;;;;;;;1.65;0.80;;;;;;;18.65;43.25;101869.69;5254094;28;20143;-26
2020/12/02 01:58:58;;;;;;;1.30;0.80;;;;;;;18.70;43.02;101869.22;5259341;28;20033;-26
2020/12/02 02:01:56;;;;;;;1.60;0.98;;;;;;;18.68;42.98;101873.84;5256637;28;20412;-26
2020/12/02 02:04:32;;;;;;;1.27;0.70;;;;;;;18.61;43.04;101864.84;5254844;28;20422;-26
2020/12/02 02:07:16;;;;;;;1.42;0.85;;;;;;;18.64;43.07;101878.66;5239155;28;20078;-26
2020/12/02 02:09:47;;;;;;;1.30;0.90;;;;;;;18.53;43.14;101856.84;5270349;28;20035;-25
2020/12/02 02:12:50;;;;;;;1.33;0.90;;;;;;;18.68;43.02;101868.56;5269495;28;20024;-26
2020/12/02 02:15:35;;;;;;;2.15;1.08;;;;;;;18.66;42.92;101874.00;5268586;28;20673;-26
2020/12/02 02:18:09;;;;;;;1.50;0.80;;;;;;;18.62;43.07;101869.16;5268626;28;20017;-26
2020/12/02 02:20:44;;;;;;;1.70;0.98;;;;;;;18.61;43.01;101876.31;5273397;28;20080;-26
2020/12/02 02:23:16;;;;;;;1.40;0.85;;;;;;;18.55;42.91;101866.31;5272201;28;20867;-26
2020/12/02 02:26:05;;;;;;;2.80;1.37;;;;;;;18.64;42.96;101880.47;5255857;28;20073;-25
2020/12/02 02:28:39;;;;;;;1.38;0.77;;;;;;;18.61;42.88;101873.66;5241639;28;20488;-26
2020/12/02 02:31:12;;;;;;;1.27;0.80;;;;;;;18.60;42.95;101869.34;5250111;28;20016;-26
2020/12/02 02:33:45;;;;;;;1.30;0.80;;;;;;;18.60;43.00;101871.13;5274184;28;20459;-27
2020/12/02 02:36:18;;;;;;;1.52;0.90;;;;;;;18.60;42.93;101866.69;5235684;28;20078;-26
2020/12/02 02:38:49;;;;;;;;;;;;;;;18.79;42.85;101867.44;5268191;28;20036;-26
2020/12/02 02:41:21;;;;;;;1.20;0.80;;;;;;;18.62;42.76;101862.03;5268724;28;19913;-26
2020/12/02 02:43:53;;;;;;;1.63;0.90;;;;;;;18.62;42.99;101867.34;5274044;28;20061;-26
2020/12/02 02:46:24;;;;;;;1.47;0.90;;;;;;;18.61;43.07;101859.56;5267385;28;20176;-26
2020/12/02 02:48:55;;;;;;;1.30;0.80;;;;;;;18.61;43.01;101865.69;5271583;28;20027;-25
2020/12/02 02:51:27;;;;;;;1.37;0.87;;;;;;;18.59;43.00;101857.03;5271066;28;20410;-26
2020/12/02 02:53:58;;;;;;;1.50;0.90;;;;;;;18.60;42.96;101863.16;5255151;28;20032;-26
2020/12/02 02:56:29;;;;;;;1.23;0.70;;;;;;;18.59;42.96;101861.50;5252520;28;20473;-26
2020/12/02 02:59:01;;;;;;;1.57;1.00;;;;;;;18.60;43.07;101857.88;5253885;28;20024;-26
2020/12/02 03:01:33;;;;;;;1.63;0.70;;;;;;;18.57;43.03;101852.91;5257511;28;20027;-26
2020/12/02 03:04:05;;;;;;;1.35;0.82;;;;;;;18.59;43.10;101859.69;5247632;28;20131;-26
2020/12/02 03:06:37;;;;;;;2.13;0.90;;;;;;;18.59;42.95;101859.69;5271140;28;20024;-26
2020/12/02 03:09:10;;;;;;;1.60;1.00;;;;;;;18.59;42.89;101861.50;5267229;28;20046;-26
2020/12/02 03:11:41;;;;;;;1.20;0.70;;;;;;;18.58;43.15;101854.56;5253546;28;20027;-26
2020/12/02 03:14:13;;;;;;;1.87;0.90;;;;;;;18.60;42.82;101860.53;5256438;28;20028;-26
2020/12/02 03:16:45;;;;;;;1.40;0.80;;;;;;;18.58;43.15;101852.72;5277859;28;20080;-25
2020/12/02 03:19:23;;;;;;;1.60;1.00;;;;;;;18.59;42.94;101857.03;5274700;28;20031;-26
2020/12/02 03:21:55;;;;;;;1.58;0.90;;;;;;;18.57;42.93;101858.22;5271330;28;20277;-25
2020/12/02 03:24:26;;;;;;;1.27;0.85;;;;;;;18.58;43.14;101857.22;5273749;28;20024;-27
2020/12/02 03:26:58;;;;;;;1.30;0.83;;;;;;;18.58;42.85;101851.91;5234358;28;20031;-25
2020/12/02 03:29:29;;;;;;;1.60;1.03;;;;;;;18.59;43.09;101854.38;5273199;28;20021;-26
2020/12/02 03:32:00;;;;;;;1.77;1.00;;;;;;;18.56;42.86;101849.41;5272080;28;20231;-26
2020/12/02 03:34:32;;;;;;;1.97;0.90;;;;;;;18.54;42.99;101846.06;5252655;28;20028;-25
2020/12/02 03:37:03;;;;;;;1.60;1.00;;;;;;;18.57;42.96;101848.41;5265985;28;20522;-25
2020/12/02 03:39:35;;;;;;;1.67;0.90;;;;;;;18.57;42.98;101845.75;5264519;28;20020;-26
2020/12/02 03:42:06;;;;;;;1.50;0.80;;;;;;;18.58;42.92;101842.13;5271677;28;20046;-28
2020/12/02 03:44:37;;;;;;;1.47;0.80;;;;;;;18.58;42.76;101841.28;5274987;28;20404;-26
2020/12/02 03:47:09;;;;;;;1.60;0.93;;;;;;;18.57;42.73;101837.81;5266858;28;20039;-26
2020/12/02 03:49:40;;;;;;;1.40;0.80;;;;;;;18.56;42.89;101833.50;5270827;28;20103;-26
2020/12/02 03:52:11;;;;;;;1.30;0.87;;;;;;;18.56;43.10;101833.50;5268612;28;20666;-26
2020/12/02 03:54:43;;;;;;;1.50;0.90;;;;;;;18.56;42.98;101833.50;5274527;28;20027;-27
2020/12/02 03:57:14;;;;;;;1.47;0.90;;;;;;;18.57;43.06;101839.63;5266585;28;20012;-26
2020/12/02 03:59:45;;;;;;;1.40;0.90;;;;;;;18.57;42.80;101831.66;5274496;28;20025;-25
2020/12/02 04:02:17;;;;;;;1.40;0.93;;;;;;;18.57;42.92;101827.19;5252999;28;20023;-26
2020/12/02 04:04:48;;;;;;;1.77;1.13;;;;;;;18.56;42.86;101827.31;5269281;28;20035;-25
2020/12/02 04:07:19;;;;;;;1.70;1.07;;;;;;;18.56;42.80;101833.50;5264973;28;20017;-26
2020/12/02 04:09:51;;;;;;;1.37;0.80;;;;;;;18.56;42.71;101835.28;5267762;28;20029;-26
2020/12/02 04:12:22;;;;;;;1.60;0.93;;;;;;;18.55;42.72;101829.16;5273751;28;20031;-26
2020/12/02 04:14:53;;;;;;;1.43;0.80;;;;;;;18.55;42.85;101829.16;5272709;28;20024;-26
2020/12/02 04:17:25;;;;;;;1.30;0.87;;;;;;;18.55;43.00;101828.31;5265029;28;20106;-26
2020/12/02 04:19:56;;;;;;;1.43;1.00;;;;;;;18.56;42.90;101824.66;5267699;28;20020;-26
2020/12/02 04:22:28;;;;;;;1.70;0.90;;;;;;;18.54;42.85;101824.84;5272849;28;20024;-26
2020/12/02 04:24:59;;;;;;;1.70;0.93;;;;;;;18.54;42.98;101811.56;5266480;28;20051;-25
2020/12/02 04:27:31;;;;;;;1.57;1.00;;;;;;;18.54;42.90;101822.19;5271674;28;20388;-26
2020/12/02 04:30:03;;;;;;;1.53;1.03;;;;;;;18.55;42.73;101823.00;5270491;28;20086;-25
2020/12/02 04:32:35;;;;;;;1.60;1.10;;;;;;;18.53;42.98;101820.53;5254546;28;20024;-26
2020/12/02 04:35:07;;;;;;;1.50;1.10;;;;;;;18.54;42.86;101827.50;5267104;28;20286;-26
2020/12/02 04:37:38;;;;;;;1.53;1.00;;;;;;;18.54;42.73;101816.88;5267246;28;20040;-26
2020/12/02 04:40:19;;;;;;;1.40;0.90;;;;;;;18.55;42.94;101813.22;5265896;28;20077;-26
2020/12/02 04:42:56;;;;;;;1.63;1.08;;;;;;;18.53;42.82;101815.22;5273068;28;20065;-25
2020/12/02 04:45:29;;;;;;;1.50;1.00;;;;;;;18.51;42.95;101819.84;5278663;23;20126;-29
2020/12/02 04:48:02;;;;;;;;;;;;;;;18.71;42.54;101817.81;5236845;28;20424;-30
2020/12/02 04:50:33;;;;;;;1.63;1.00;;;;;;;18.53;42.69;101806.44;5234098;28;19908;-29
2020/12/02 04:53:21;;;;;;;1.50;0.90;;;;;;;18.57;42.71;101805.94;5244282;28;20749;-29
2020/12/02 04:55:54;;;;;;;1.73;0.95;;;;;;;18.51;42.71;101803.91;5245655;28;20021;-29
2020/12/02 04:58:25;;;;;;;1.50;1.10;;;;;;;18.52;42.87;101791.47;5250426;28;20620;-29
2020/12/02 05:01:32;;;;;;;1.43;0.93;;;;;;;18.62;42.53;101795.69;5249766;28;20043;-29
2020/12/02 05:04:14;;;;;;;2.30;1.40;;;;;;;18.52;43.01;101796.78;5163995;28;20042;-29
2020/12/02 05:07:04;;;;;;;1.48;1.00;;;;;;;18.50;42.68;101790.81;5223777;28;20117;-29
2020/12/02 05:09:50;;;;;;;1.80;1.20;;;;;;;18.50;42.75;101796.97;5204442;28;20071;-29
2020/12/02 05:12:27;;;;;;;1.58;1.00;;;;;;;18.51;42.80;101795.13;5234375;28;20019;-29
2020/12/02 05:15:28;;;;;;;1.50;1.00;;;;;;;18.53;42.62;101788.69;5231948;28;20111;-30
2020/12/02 05:18:21;;;;;;;1.40;0.93;;;;;;;18.57;42.58;101795.34;5241039;28;20021;-30
2020/12/02 05:21:01;;;;;;;1.70;1.00;;;;;;;18.53;42.86;101794.00;5250705;28;20032;-29
2020/12/02 05:23:32;;;;;;;1.33;0.80;;;;;;;18.50;42.75;101794.31;5246481;28;20067;-29
2020/12/02 05:26:16;;;;;;;2.10;1.00;;;;;;;18.53;42.60;101794.00;5244675;28;20017;-29
2020/12/02 05:28:47;;;;;;;1.60;1.02;;;;;;;18.47;42.82;101792.78;5246967;28;20389;-29
2020/12/02 05:31:21;;;;;;;1.60;0.93;;;;;;;18.51;42.57;101792.47;5215228;28;20017;-29
2020/12/02 05:33:53;;;;;;;1.20;0.75;;;;;;;18.46;42.85;101783.19;5232816;28;20017;-29
2020/12/02 05:36:27;;;;;;;1.50;1.10;;;;;;;18.50;42.67;101790.81;5245575;28;20033;-29
2020/12/02 05:39:16;;;;;;;1.75;1.00;;;;;;;18.48;42.73;101789.13;5216622;28;20192;-30
2020/12/02 05:41:48;;;;;;;2.05;1.10;;;;;;;18.48;42.90;101793.63;5231990;28;20067;-30
2020/12/02 05:44:24;;;;;;;1.67;0.88;;;;;;;18.48;42.94;101790.97;5217955;28;20105;-29
2020/12/02 05:46:56;;;;;;;1.63;1.10;;;;;;;18.46;42.82;101791.13;5228202;28;20083;-29
2020/12/02 05:49:27;;;;;;;;;;;;;;;18.66;42.42;101794.38;5251226;28;20049;-29
2020/12/02 05:51:59;;;;;;;1.90;1.10;;;;;;;18.48;42.65;101796.28;5252927;28;19951;-30
2020/12/02 05:54:31;;;;;;;1.70;1.10;;;;;;;18.49;42.79;101800.63;5216657;28;20103;-29
2020/12/02 05:57:03;;;;;;;1.30;1.00;;;;;;;18.47;42.67;101795.44;5208139;28;20071;-29
2020/12/02 05:59:34;;;;;;;1.50;0.90;;;;;;;18.48;42.81;101796.28;5221748;28;20036;-29
2020/12/02 06:02:05;;;;;;;1.80;1.27;;;;;;;18.48;42.74;101798.94;5249569;28;20031;-29
2020/12/02 06:04:37;;;;;;;1.77;0.97;;;;;;;18.47;42.74;101786.66;5220771;28;20025;-29
2020/12/02 06:07:08;;;;;;;1.90;1.07;;;;;;;18.47;42.63;101786.66;5229223;28;20153;-29
2020/12/02 06:09:44;;;;;;;1.80;1.10;;;;;;;18.47;42.72;101786.66;5236587;28;20496;-29
2020/12/02 06:12:17;;;;;;;2.63;1.33;;;;;;;18.47;42.70;101784.00;5247644;28;20127;-29
2020/12/02 06:14:48;;;;;;;;;;;;;;;18.65;42.45;101776.78;5254645;28;20107;-29
2020/12/02 06:17:24;;;;;;;1.88;1.00;;;;;;;18.50;42.94;101785.53;5237314;28;19923;-29
2020/12/02 06:19:56;;;;;;;1.83;1.05;;;;;;;18.47;42.67;101768.91;5253089;28;20060;-29
2020/12/02 06:22:50;;;;;;;1.50;1.07;;;;;;;18.55;42.73;101781.38;5253678;28;20100;-29
2020/12/02 06:25:40;;;;;;;;;;;;;;;18.67;42.45;101773.97;5247630;28;20278;-29
2020/12/02 06:28:11;;;;;;;1.52;0.98;;;;;;;18.54;42.94;101776.25;5243037;28;19916;-29
2020/12/02 06:30:43;;;;;;;1.70;1.23;;;;;;;18.52;42.89;101771.09;5255589;28;20048;-29
2020/12/02 06:33:19;;;;;;;1.40;0.90;;;;;;;18.53;42.75;101764.81;5216783;28;20564;-29
2020/12/02 06:36:03;;;;;;;2.95;1.00;;;;;;;18.55;42.63;101759.31;5218704;28;20289;-30
2020/12/02 06:38:34;;;;;;;1.85;1.30;;;;;;;18.51;42.74;101750.84;5215509;28;20028;-29
2020/12/02 06:41:16;;;;;;;1.40;1.00;;;;;;;18.54;43.00;101753.19;5196951;28;20192;-29
2020/12/02 06:44:01;;;;;;;1.70;1.10;;;;;;;18.57;42.88;101755.53;5190235;28;20104;-30
2020/12/02 06:46:41;;;;;;;1.60;1.00;;;;;;;18.58;42.75;101759.00;5228231;28;20044;-30
2020/12/02 06:49:12;;;;;;;1.80;1.02;;;;;;;18.54;42.78;101761.16;5220951;28;20025;-29
2020/12/02 06:51:55;;;;;;;1.60;1.10;;;;;;;18.60;42.77;101762.31;5229398;28;20786;-29
2020/12/02 06:54:29;;;;;;;1.20;0.73;;;;;;;18.56;42.83;101759.19;5225031;28;20084;-29
2020/12/02 06:57:18;;;;;;;1.50;0.93;;;;;;;18.62;42.71;101760.34;5217471;28;20482;-30
2020/12/02 06:59:57;;;;;;;1.30;0.90;;;;;;;18.57;42.76;101752.03;5228025;28;20025;-30
2020/12/02 07:02:53;;;;;;;1.60;1.10;;;;;;;18.61;42.66;101754.22;5222330;28;20482;-30
2020/12/02 07:05:29;;;;;;;1.50;1.00;;;;;;;18.56;42.64;101748.56;5213769;28;20084;-29
2020/12/02 07:08:11;;;;;;;1.40;0.90;;;;;;;18.57;42.77;101758.19;5221809;28;20401;-30
2020/12/02 07:10:53;;;;;;;1.75;1.00;;;;;;;18.59;42.70;101748.22;5228966;28;20056;-29
2020/12/02 07:13:25;;;;;;;1.50;0.93;;;;;;;18.56;42.62;101751.22;5215306;28;20035;-29
2020/12/02 07:15:56;;;;;;;1.80;0.73;;;;;;;18.58;42.52;101743.09;5221128;28;20663;-29
2020/12/02 07:18:27;;;;;;;1.97;1.00;;;;;;;18.58;42.46;101749.22;5199225;28;20824;-29
2020/12/02 07:21:07;;;;;;;1.50;0.93;;;;;;;18.58;42.74;101751.88;5206358;28;20478;-30
2020/12/02 07:23:39;;;;;;;1.50;0.90;;;;;;;18.56;42.69;101753.88;5216202;28;20170;-29
2020/12/02 07:26:11;;;;;;;1.60;0.87;;;;;;;18.57;42.51;101752.88;5209674;28;20037;-29
2020/12/02 07:28:42;;;;;;;1.40;0.80;;;;;;;18.58;42.50;101757.19;5253535;28;20086;-29
2020/12/02 07:31:22;;;;;;;1.40;0.90;;;;;;;18.60;42.69;101757.88;5209477;28;20338;-29
2020/12/02 07:34:04;;;;;;;1.20;0.80;;;;;;;18.58;42.68;101751.03;5189754;28;21010;-29
2020/12/02 07:36:38;;;;;;;1.60;0.90;;;;;;;18.57;42.58;101758.19;5192540;28;20333;-30
2020/12/02 07:39:16;;;;;;;1.50;1.00;;;;;;;18.58;42.82;101756.34;5203544;28;20049;-29
2020/12/02 07:41:51;;;;;;;1.50;1.00;;;;;;;18.58;42.50;101761.66;5236340;28;20033;-29
2020/12/02 07:44:23;;;;;;;1.23;0.70;;;;;;;18.56;42.57;101755.66;5228647;28;20017;-29
2020/12/02 07:46:58;;;;;;;1.60;1.03;;;;;;;18.57;42.75;101749.41;5230342;28;20124;-30
2020/12/02 07:49:29;;;;;;;1.50;0.95;;;;;;;18.53;42.24;101746.22;5206410;28;20475;-29
2020/12/02 07:52:09;;;;;;;1.30;0.87;;;;;;;18.59;42.74;101758.84;5231573;28;20012;-29
2020/12/02 07:54:40;;;;;;;1.48;0.95;;;;;;;18.56;42.76;101755.66;5228965;28;20062;-29
2020/12/02 07:57:12;;;;;;;1.60;0.80;;;;;;;18.57;42.64;101757.34;5227247;28;20024;-29
2020/12/02 08:00:03;;;;;;;1.50;0.90;;;;;;;18.57;42.49;101750.22;5205603;28;20118;-30
2020/12/02 08:02:38;;;;;;;1.50;1.00;;;;;;;18.56;42.49;101748.56;5236517;28;20037;-29
2020/12/02 08:05:43;;;;;;;1.60;0.93;;;;;;;18.61;42.74;101746.25;5251531;28;20021;-29
2020/12/02 08:08:14;;;;;;;1.40;0.80;;;;;;;18.56;42.65;101748.56;5247537;28;20028;-29
2020/12/02 08:10:46;;;;;;;1.40;1.00;;;;;;;18.56;42.43;101745.06;5240495;28;20084;-29
2020/12/02 08:13:18;;;;;;;1.67;1.03;;;;;;;18.56;42.60;101747.72;5252323;28;20055;-29
2020/12/02 08:15:55;;;;;;;1.95;1.20;;;;;;;18.56;42.56;101740.59;5224861;28;20554;-27
2020/12/02 08:18:28;;;;;;;2.08;1.00;;;;;;;18.53;42.61;101738.28;5229935;28;20021;-28
2020/12/02 08:21:08;;;;;;;1.40;1.00;;;;;;;18.55;42.65;101733.63;5250456;28;20806;-29
2020/12/02 08:23:40;;;;;;;1.60;1.10;;;;;;;18.52;42.46;101731.28;5214832;28;20061;-29
2020/12/02 08:26:15;;;;;;;2.63;1.03;;;;;;;18.54;42.59;101726.66;5210559;28;20515;-29
2020/12/02 08:28:47;;;;;;;1.60;1.00;;;;;;;18.53;42.65;101730.31;5208776;28;20044;-29
2020/12/02 08:31:25;;;;;;;1.80;1.10;;;;;;;18.56;42.37;101729.13;5213675;28;20506;-29
2020/12/02 08:34:26;;;;;;;1.40;1.10;;;;;;;18.59;42.45;101726.16;5248121;28;20017;-29
2020/12/02 08:37:19;;;;;;;1.63;1.20;;;;;;;18.59;42.35;101723.50;5239544;28;20112;-29
2020/12/02 08:39:52;;;;;;;1.83;1.10;;;;;;;18.53;42.54;101719.69;5240353;28;20669;-29
2020/12/02 08:42:24;;;;;;;2.00;1.17;;;;;;;18.52;42.63;101712.69;5224968;28;20119;-29
2020/12/02 08:45:13;;;;;;;1.70;1.10;;;;;;;18.59;42.28;101719.03;5243205;28;20025;-30
2020/12/02 08:47:52;;;;;;;1.65;0.90;;;;;;;18.55;42.48;101716.88;5236951;28;20057;-29
2020/12/02 08:50:28;;;;;;;1.60;1.10;;;;;;;18.52;42.50;101712.69;5229496;28;20029;-30
2020/12/02 08:52:59;;;;;;;2.28;1.17;;;;;;;18.52;42.32;101707.38;5249635;28;20086;-29
2020/12/02 08:55:30;;;;;;;1.90;1.07;;;;;;;18.53;42.41;101710.91;5249042;28;20025;-29
2020/12/02 08:58:02;;;;;;;1.80;1.27;;;;;;;18.53;42.54;101703.78;5240067;28;20658;-29
2020/12/02 09:00:33;;;;;;;1.90;1.30;;;;;;;18.52;42.34;101696.78;5247677;28;20017;-29
2020/12/02 09:03:04;;;;;;;1.63;1.07;;;;;;;18.53;42.49;101694.97;5246338;28;20032;-29
2020/12/02 09:05:36;;;;;;;1.83;1.23;;;;;;;18.52;42.47;101699.44;5246796;28;20035;-29
2020/12/02 09:08:07;;;;;;;1.60;1.10;;;;;;;18.53;42.61;101701.13;5238981;28;20033;-30
2020/12/02 09:10:39;;;;;;;2.27;1.50;;;;;;;18.56;42.71;101694.63;5249541;28;20470;-30
2020/12/02 09:13:10;;;;;;;1.90;1.20;;;;;;;18.44;42.72;101671.06;5243756;28;20078;-30
2020/12/02 09:15:42;;;;;;;2.13;1.40;;;;;;;18.61;42.67;101700.31;5248617;28;20060;-29
2020/12/02 09:18:13;;;;;;;3.10;1.27;;;;;;;18.60;42.57;101701.28;5221743;28;20078;-30
2020/12/02 09:20:45;;;;;;;2.17;1.43;;;;;;;18.59;42.52;101691.66;5251770;28;20064;-29
2020/12/02 09:23:16;;;;;;;2.33;1.50;;;;;;;18.60;42.68;101685.34;5247413;28;20414;-29
2020/12/02 09:25:48;;;;;;;2.13;1.47;;;;;;;18.61;42.70;101684.38;5252530;28;20029;-29
2020/12/02 09:28:19;;;;;;;3.03;2.03;;;;;;;18.61;42.73;101687.03;5239058;28;20359;-29
2020/12/02 09:30:50;;;;;;;4.53;3.17;;;;;;;18.59;42.08;101683.69;5256369;28;20474;-29
2020/12/02 09:33:22;;;;;;;6.27;4.37;;;;;;;18.55;41.82;101688.50;5246368;28;20036;-29
2020/12/02 09:35:53;;;;;;;5.67;4.43;;;;;;;18.55;41.60;101685.03;5254335;28;20029;-29
2020/12/02 09:38:24;;;;;;;6.03;4.27;;;;;;;18.52;42.06;101674.72;5239532;28;20090;-29
2020/12/02 09:40:59;;;;;;;5.43;3.73;;;;;;;18.51;41.76;101678.38;5221745;28;20024;-29
2020/12/02 09:44:09;;;;;;;6.30;4.60;;;;;;;18.56;41.80;101676.06;5228226;28;20506;-29
2020/12/02 09:46:43;;;;;;;7.50;4.22;;;;;;;18.54;41.74;101683.38;5207067;28;20048;-29
2020/12/02 09:49:14;;;;;;;5.43;4.10;;;;;;;18.55;42.11;101677.88;5227822;28;20017;-29
2020/12/02 09:51:51;;;;;;;5.20;3.83;;;;;;;18.59;41.99;101673.09;5247234;28;20047;-29
2020/12/02 09:54:22;;;;;;;4.45;3.50;;;;;;;18.57;41.80;101669.78;5236428;28;20075;-30
2020/12/02 09:56:54;;;;;;;5.73;3.23;;;;;;;18.59;41.91;101665.13;5250177;28;20017;-30
2020/12/02 09:59:25;;;;;;;6.03;3.80;;;;;;;18.58;41.90;101660.81;5221426;28;20567;-29
2020/12/02 10:02:35;;;;;;;4.63;3.70;;;;;;;18.65;41.82;101656.53;5244176;28;20037;-29
2020/12/02 10:05:18;;;;;;;4.43;3.53;;;;;;;18.60;41.90;101653.50;5243085;28;20045;-28
2020/12/02 10:08:02;;;;;;;4.75;3.55;;;;;;;18.60;42.02;101649.06;5243551;28;20013;-28
2020/12/02 10:10:49;;;;;;;4.05;3.08;;;;;;;18.61;42.14;101652.53;5251667;28;20532;-28
2020/12/02 10:13:39;;;;;;;4.95;2.92;;;;;;;18.59;42.16;101657.16;5222596;28;20490;-27
2020/12/02 10:16:29;;;;;;;4.30;3.22;;;;;;;18.63;42.14;101650.53;5237376;28;20567;-28
2020/12/02 10:19:19;;;;;;;4.45;3.40;;;;;;;18.66;42.00;101640.41;5212607;28;20046;-29
2020/12/02 10:22:14;;;;;;;4.60;3.10;;;;;;;18.66;42.01;101640.41;5242415;28;20334;-30
2020/12/02 10:25:16;;;;;;;3.90;3.08;;;;;;;18.63;42.11;101626.66;5232400;28;20036;-29
2020/12/02 10:27:57;;;;;;;5.30;3.20;;;;;;;18.59;41.98;101620.84;5232485;28;20021;-28
2020/12/02 10:30:29;;;;;;;4.45;3.47;;;;;;;18.59;42.24;101623.50;5249328;28;20060;-28
2020/12/02 10:33:21;;;;;;;4.82;3.20;;;;;;;18.59;42.04;101614.69;5251590;28;20258;-28
2020/12/02 10:35:53;;;;;;;3.95;2.75;;;;;;;18.59;42.30;101612.03;5224432;28;20029;-28
2020/12/02 10:38:49;;;;;;;3.57;3.10;;;;;;;18.67;42.06;101610.22;5243920;28;20036;-29
2020/12/02 10:41:40;;;;;;;4.20;3.20;;;;;;;18.59;42.11;101602.25;5249491;28;20455;-28
2020/12/02 10:44:23;;;;;;;3.80;3.10;;;;;;;18.64;41.97;101602.63;5253118;28;20045;-29
2020/12/02 10:47:46;;;;;;;5.50;3.20;;;;;;;18.68;41.77;101598.63;5211731;23;20474;-71
2020/12/02 10:50:19;;;;;;;4.00;3.00;;;;;;;18.60;42.14;101590.66;5119073;28;20100;-71
2020/12/02 10:52:53;;;;;;;4.47;3.22;;;;;;;18.59;42.22;101599.59;5179189;28;20022;-71
2020/12/02 10:55:28;;;;;;;3.95;2.88;;;;;;;18.61;42.24;101591.50;5210728;28;20092;-71
2020/12/02 10:58:09;;;;;;;5.20;2.85;;;;;;;18.59;42.24;101586.34;5196548;28;20162;-71
2020/12/02 11:00:41;;;;;;;4.65;3.15;;;;;;;18.60;41.97;101582.72;5206882;28;20022;-70
2020/12/02 11:03:31;;;;;;;3.90;2.87;;;;;;;18.66;42.01;101575.91;5183787;28;20030;-70
2020/12/02 11:06:38;;;;;;;4.68;2.63;;;;;;;18.60;41.97;101555.31;5190883;28;20121;-71
2020/12/02 11:09:24;;;;;;;4.22;3.08;;;;;;;18.57;42.19;101558.31;5150257;28;20034;-71
2020/12/02 11:12:17;;;;;;;3.67;2.67;;;;;;;18.66;42.32;101557.31;5195863;28;20679;-70
2020/12/02 11:14:58;;;;;;;3.63;2.92;;;;;;;18.55;42.06;101536.41;5162662;28;20221;-72
2020/12/02 11:17:36;;;;;;;4.00;3.15;;;;;;;18.61;42.02;101539.25;5170308;28;20041;-71
2020/12/02 11:20:12;;;;;;;4.10;3.05;;;;;;;18.54;42.21;101532.94;5192782;28;20363;-71
2020/12/02 11:23:01;;;;;;;3.38;2.35;;;;;;;18.62;41.97;101538.25;5174742;28;20589;-70
2020/12/02 11:25:43;;;;;;;3.50;2.90;;;;;;;18.66;42.26;101531.59;5170392;28;20402;-70
2020/12/02 11:28:15;;;;;;;3.58;2.78;;;;;;;18.64;42.36;101524.81;5195638;28;20463;-70
2020/12/02 11:30:47;;;;;;;4.10;2.78;;;;;;;18.70;42.03;101534.75;5191286;28;20037;-72
2020/12/02 11:33:44;;;;;;;4.27;3.03;;;;;;;18.74;42.08;101527.31;5180945;28;20021;-70
2020/12/02 11:36:27;;;;;;;4.25;3.20;;;;;;;18.68;42.18;101526.97;5205598;28;20029;-71
2020/12/02 11:39:25;;;;;;;4.13;3.10;;;;;;;18.71;42.31;101512.53;5155881;28;20034;-71
2020/12/02 11:42:35;;;;;;;3.58;2.70;;;;;;;18.71;42.19;101524.03;5203185;28;20664;-70
2020/12/02 11:45:17;;;;;;;3.45;2.70;;;;;;;18.66;42.29;101513.03;5204121;28;20431;-71
2020/12/02 11:48:02;;;;;;;4.22;2.72;;;;;;;18.67;42.06;101514.66;5203726;28;20222;-71
2020/12/02 11:50:44;;;;;;;3.90;2.60;;;;;;;18.65;42.27;101503.41;5175642;28;20440;-70
2020/12/02 11:53:18;;;;;;;3.90;2.90;;;;;;;18.63;42.40;101508.03;5174669;28;20026;-70
2020/12/02 11:55:51;;;;;;;3.92;2.75;;;;;;;18.62;42.53;101505.56;5202659;28;20256;-72
2020/12/02 11:58:22;;;;;;;4.68;3.00;;;;;;;18.63;42.48;101497.41;5201820;28;20385;-70
2020/12/02 12:00:57;;;;;;;3.20;2.50;;;;;;;18.64;42.16;101503.59;5191248;28;20254;-69
2020/12/02 12:03:36;;;;;;;3.45;2.58;;;;;;;18.60;42.14;101495.13;5176126;28;20037;-69
2020/12/02 12:06:15;;;;;;;3.20;2.60;;;;;;;18.65;42.35;101492.78;5175437;28;20379;-70
2020/12/02 12:09:08;;;;;;;3.08;2.60;;;;;;;18.68;42.47;101488.97;5160900;28;20458;-71
2020/12/02 12:11:39;;;;;;;3.80;2.75;;;;;;;18.66;42.68;101483.00;5180289;28;20235;-69